Time;durP1;ratioP1;P1;durP2;ratioP2;P2;SDS_P1;SDS_P2;PMS_P1;PMS_P2;Temp;Humidity;BMP_temperature;BMP_pressure;BME280_temperature;BME280_humidity;BME280_pressure;Samples;Min_cycle;Max_cycle;Signal;HPM_P1;HPM_P2
2022/09/13 00:00:43;;;;;;;1.37;1.27;;;26.70;70.90;;;;;;5115937;28;20486;-83
2022/09/13 00:03:12;;;;;;;1.77;1.67;;;26.70;70.90;;;;;;5115461;28;20449;-83
2022/09/13 00:05:39;;;;;;;1.50;1.40;;;26.70;70.90;;;;;;5115576;28;20526;-83
2022/09/13 00:08:07;;;;;;;1.47;1.37;;;26.70;70.90;;;;;;5115597;28;20431;-83
2022/09/13 00:10:36;;;;;;;1.60;1.50;;;26.70;70.90;;;;;;5115158;28;20803;-83
2022/09/13 00:13:03;;;;;;;1.60;1.50;;;26.70;70.90;;;;;;5115274;28;20494;-83
2022/09/13 00:15:31;;;;;;;1.83;1.73;;;26.70;70.90;;;;;;5115272;28;20863;-82
2022/09/13 00:17:59;;;;;;;1.53;1.43;;;26.70;70.90;;;;;;5115140;28;20929;-92
2022/09/13 00:20:26;;;;;;;1.60;1.50;;;26.70;70.90;;;;;;5114924;28;21015;-91
2022/09/13 00:22:53;;;;;;;1.57;1.47;;;26.70;70.90;;;;;;5115107;28;20439;-87
2022/09/13 00:25:20;;;;;;;1.40;1.30;;;26.70;70.90;;;;;;5114843;28;20827;-83
2022/09/13 00:27:47;;;;;;;1.43;1.33;;;26.70;70.90;;;;;;5114959;28;20432;-83
2022/09/13 00:30:14;;;;;;;1.50;1.40;;;26.70;70.90;;;;;;5114909;28;20443;-82
2022/09/13 00:32:42;;;;;;;1.30;1.20;;;26.70;70.90;;;;;;5114773;28;20435;-82
2022/09/13 00:35:10;;;;;;;1.50;1.40;;;26.70;71.70;;;;;;5114709;28;20435;-83
2022/09/13 00:37:38;;;;;;;1.70;1.60;;;26.70;70.90;;;;;;5115046;28;20472;-83
2022/09/13 00:40:06;;;;;;;1.50;1.40;;;26.70;71.80;;;;;;5114546;28;20973;-83
2022/09/13 00:42:33;;;;;;;1.40;1.30;;;26.70;70.90;;;;;;5114392;28;20537;-83
2022/09/13 00:45:02;;;;;;;1.40;1.30;;;26.70;70.90;;;;;;5114611;28;20492;-82
2022/09/13 00:47:36;;;;;;;1.27;1.17;;;26.70;70.80;;;;;;5114738;28;20796;-91
2022/09/13 00:50:11;;;;;;;1.40;1.30;;;26.70;70.80;;;;;;5114673;28;20449;-83
2022/09/13 00:52:40;;;;;;;1.43;1.33;;;26.70;70.80;;;;;;5114651;28;20446;-91
2022/09/13 00:55:13;;;;;;;1.50;1.40;;;26.70;70.80;;;;;;5114482;28;20441;-83
2022/09/13 00:57:43;;;;;;;1.43;1.33;;;26.70;70.80;;;;;;5114278;28;20484;-82
2022/09/13 01:00:13;;;;;;;1.40;1.30;;;26.70;70.80;;;;;;5114206;28;20474;-83
2022/09/13 01:02:41;;;;;;;1.30;1.20;;;26.70;70.80;;;;;;5114439;28;20859;-83
2022/09/13 01:05:10;;;;;;;1.70;1.60;;;26.70;70.90;;;;;;5108358;28;20453;-83
2022/09/13 01:07:39;;;;;;;1.60;1.50;;;26.70;70.90;;;;;;5114504;28;20446;-83
2022/09/13 01:10:07;;;;;;;1.63;1.53;;;26.70;70.90;;;;;;5114248;28;20443;-82
2022/09/13 01:12:42;;;;;;;1.40;1.30;;;26.70;70.90;;;;;;5114235;28;20457;-91
2022/09/13 01:15:10;;;;;;;1.50;1.40;;;26.70;70.90;;;;;;5114284;28;20439;-83
2022/09/13 01:17:39;;;;;;;1.50;1.40;;;26.70;71.00;;;;;;5114209;28;20815;-92
2022/09/13 01:20:08;;;;;;;1.33;1.23;;;26.70;71.00;;;;;;5113791;28;20499;-84
2022/09/13 01:23:07;;;;;;;1.47;1.37;;;26.70;71.00;;;;;;5113941;28;20445;-83
2022/09/13 01:26:16;;;;;;;1.70;1.60;;;26.70;70.90;;;;;;5113969;28;20918;-83
2022/09/13 01:29:19;;;;;;;1.40;1.30;;;26.70;70.90;;;;;;5061119;28;20443;-82
2022/09/13 01:31:54;;;;;;;1.30;1.20;;;26.70;70.90;;;;;;5113776;28;20945;-83
2022/09/13 01:34:35;;;;;;;1.40;1.30;;;26.70;71.10;;;;;;5113813;28;20446;-83
2022/09/13 01:37:33;;;;;;;1.40;1.30;;;26.70;71.00;;;;;;5113193;28;20939;-83
2022/09/13 01:40:08;;;;;;;1.60;1.50;;;26.70;71.00;;;;;;5113744;28;20481;-83
2022/09/13 01:42:53;;;;;;;1.57;1.47;;;26.70;71.00;;;;;;5113643;28;20524;-82
2022/09/13 01:45:32;;;;;;;1.37;1.27;;;26.70;71.00;;;;;;5113801;28;20437;-83
2022/09/13 01:48:09;;;;;;;1.40;1.30;;;26.70;71.90;;;;;;5113695;28;20506;-82
2022/09/13 01:50:42;;;;;;;1.57;1.47;;;26.70;71.10;;;;;;5113523;28;20841;-82
2022/09/13 01:53:17;;;;;;;1.30;1.20;;;26.70;71.10;;;;;;5113707;28;20526;-84
2022/09/13 01:55:48;;;;;;;1.47;1.37;;;26.70;71.10;;;;;;5113957;28;20449;-83
2022/09/13 01:58:22;;;;;;;1.40;1.30;;;26.70;71.10;;;;;;5113942;28;20438;-83
2022/09/13 02:00:56;;;;;;;1.37;1.27;;;26.70;71.10;;;;;;5113606;28;20494;-83
2022/09/13 02:03:31;;;;;;;1.50;1.40;;;26.70;71.10;;;;;;5113597;28;20454;-90
2022/09/13 02:06:02;;;;;;;1.40;1.30;;;26.70;71.10;;;;;;5113761;28;20435;-83
2022/09/13 02:08:37;;;;;;;1.60;1.50;;;26.70;71.10;;;;;;5113726;28;20956;-92
2022/09/13 02:11:09;;;;;;;1.73;1.63;;;26.70;72.00;;;;;;5113401;28;20452;-83
2022/09/13 02:13:40;;;;;;;1.30;1.20;;;26.70;71.10;;;;;;5113561;28;20439;-83
2022/09/13 02:16:13;;;;;;;1.47;1.37;;;26.70;71.10;;;;;;5113553;28;20445;-83
2022/09/13 02:18:43;;;;;;;1.50;1.40;;;26.70;71.10;;;;;;5113588;28;20789;-82
2022/09/13 02:21:14;;;;;;;1.67;1.57;;;26.70;71.20;;;;;;5113525;28;20845;-83
2022/09/13 02:23:45;;;;;;;1.70;1.60;;;26.70;71.20;;;;;;5113456;28;20448;-83
2022/09/13 02:26:15;;;;;;;1.43;1.33;;;26.70;71.20;;;;;;5113680;28;20518;-83
2022/09/13 02:28:47;;;;;;;1.47;1.37;;;26.70;71.10;;;;;;5113196;28;20442;-83
2022/09/13 02:31:18;;;;;;;1.30;1.20;;;26.70;71.10;;;;;;5113250;28;20443;-82
2022/09/13 02:33:51;;;;;;;1.40;1.30;;;26.70;71.10;;;;;;5113287;28;20443;-83
2022/09/13 02:36:24;;;;;;;1.20;1.10;;;26.70;71.10;;;;;;5113161;28;20454;-91
2022/09/13 02:38:55;;;;;;;1.40;1.30;;;26.70;71.10;;;;;;5113336;28;20439;-83
2022/09/13 02:41:26;;;;;;;1.27;1.17;;;26.70;71.30;;;;;;5095231;28;20873;-83
2022/09/13 02:43:58;;;;;;;1.30;1.20;;;26.70;71.20;;;;;;5113290;28;20450;-83
2022/09/13 02:46:40;;;;;;;1.20;1.10;;;26.70;71.30;;;;;;5113291;28;20435;-87
2022/09/13 02:49:15;;;;;;;1.60;1.50;;;26.70;71.20;;;;;;5114908;28;20434;-82
2022/09/13 02:51:52;;;;;;;1.87;1.40;;;26.70;71.20;;;;;;5117010;28;20427;-83
2022/09/13 02:54:30;;;;;;;1.50;1.40;;;26.70;71.20;;;;;;5116739;28;20855;-82
2022/09/13 02:57:01;;;;;;;2.30;1.40;;;26.70;71.20;;;;;;5117003;28;20468;-90
2022/09/13 02:59:27;;;;;;;1.30;1.20;;;26.70;72.00;;;;;;5116686;28;20514;-91
2022/09/13 03:01:59;;;;;;;1.30;1.20;;;26.70;71.20;;;;;;5116435;28;20486;-83
2022/09/13 03:04:28;;;;;;;1.20;1.10;;;26.70;71.20;;;;;;5116649;28;20798;-84
2022/09/13 03:06:54;;;;;;;1.33;1.23;;;26.70;71.20;;;;;;5116564;28;20464;-83
2022/09/13 03:09:22;;;;;;;1.70;1.60;;;26.70;72.00;;;;;;5116522;28;20445;-83
2022/09/13 03:12:16;;;;;;;1.20;1.10;;;26.70;71.20;;;;;;5116267;28;20463;-82
2022/09/13 03:14:50;;;;;;;1.20;1.10;;;26.70;72.00;;;;;;5116501;28;20435;-83
2022/09/13 03:17:38;;;;;;;1.40;1.30;;;26.60;71.10;;;;;;5116420;28;20443;-83
2022/09/13 03:20:12;;;;;;;1.20;1.10;;;26.70;71.20;;;;;;5115959;28;20979;-83
2022/09/13 03:23:03;;;;;;;1.33;1.23;;;26.70;71.20;;;;;;5116175;28;20442;-82
2022/09/13 03:25:40;;;;;;;1.40;1.30;;;26.70;71.20;;;;;;5116501;28;20439;-83
2022/09/13 03:28:20;;;;;;;1.43;1.33;;;26.70;71.30;;;;;;5116044;28;20442;-82
2022/09/13 03:30:50;;;;;;;1.20;1.10;;;26.70;71.30;;;;;;5116144;28;20439;-90
2022/09/13 03:33:28;;;;;;;1.57;1.47;;;26.70;71.30;;;;;;5116076;28;20504;-83
2022/09/13 03:36:04;;;;;;;1.37;1.27;;;26.70;71.30;;;;;;5116009;28;20435;-83
2022/09/13 03:38:35;;;;;;;1.37;1.27;;;26.60;71.20;;;;;;5116085;28;20445;-84
2022/09/13 03:41:09;;;;;;;1.33;1.23;;;26.70;72.20;;;;;;5115685;28;20475;-89
2022/09/13 03:43:40;;;;;;;1.20;1.10;;;26.70;71.30;;;;;;5115774;28;20442;-90
2022/09/13 03:46:10;;;;;;;1.30;1.20;;;26.60;71.20;;;;;;5115845;28;20439;-82
2022/09/13 03:48:40;;;;;;;1.20;1.10;;;26.70;71.40;;;;;;5115874;28;20457;-83
2022/09/13 03:51:10;;;;;;;1.43;1.33;;;26.70;71.40;;;;;;5115665;28;20541;-83
2022/09/13 03:53:42;;;;;;;1.27;1.17;;;26.70;71.40;;;;;;5115455;28;20475;-82
2022/09/13 03:56:15;;;;;;;1.37;1.27;;;26.70;71.40;;;;;;5115597;28;20492;-83
2022/09/13 03:58:43;;;;;;;1.10;1.00;;;26.70;71.50;;;;;;5115834;28;20439;-82
2022/09/13 04:01:10;;;;;;;1.17;1.07;;;26.70;71.60;;;;;;5114771;28;20471;-92
2022/09/13 04:03:37;;;;;;;1.70;1.60;;;26.70;71.60;;;;;;5115224;28;20431;-83
2022/09/13 04:06:04;;;;;;;1.50;1.40;;;26.70;71.60;;;;;;5115444;28;20435;-83
2022/09/13 04:08:33;;;;;;;1.60;1.50;;;26.60;71.50;;;;;;5115383;28;20526;-90
2022/09/13 04:11:00;;;;;;;1.50;1.40;;;26.60;71.50;;;;;;5115239;28;20542;-88
2022/09/13 04:13:28;;;;;;;1.37;1.27;;;26.70;71.60;;;;;;5115036;28;20440;-91
2022/09/13 04:15:55;;;;;;;1.50;1.40;;;26.70;71.60;;;;;;5115316;28;20478;-84
2022/09/13 04:18:23;;;;;;;1.10;1.00;;;26.70;71.70;;;;;;5115073;28;20470;-83
2022/09/13 04:20:55;;;;;;;1.40;1.30;;;26.70;72.50;;;;;;5114857;28;20510;-83
2022/09/13 04:23:22;;;;;;;1.33;1.23;;;26.70;71.60;;;;;;5115037;28;20439;-82
2022/09/13 04:25:50;;;;;;;1.20;1.10;;;26.70;71.70;;;;;;5115137;28;20435;-83
2022/09/13 04:28:17;;;;;;;1.47;1.37;;;26.70;71.70;;;;;;5114931;28;20447;-88
2022/09/13 04:30:45;;;;;;;1.10;1.00;;;26.70;71.70;;;;;;5114841;28;21029;-83
2022/09/13 04:33:11;;;;;;;1.50;1.40;;;26.70;71.70;;;;;;5114636;28;20450;-82
2022/09/13 04:35:39;;;;;;;1.37;1.27;;;26.70;71.70;;;;;;5114797;28;20447;-82
2022/09/13 04:38:06;;;;;;;1.23;1.13;;;26.60;71.60;;;;;;5114618;28;20521;-82
2022/09/13 04:40:34;;;;;;;1.30;1.20;;;26.70;71.70;;;;;;5114673;28;20446;-83
2022/09/13 04:43:03;;;;;;;1.60;1.50;;;26.70;71.60;;;;;;5114462;28;20811;-82
2022/09/13 04:45:29;;;;;;;1.30;1.20;;;26.60;71.60;;;;;;5114367;28;20482;-82
2022/09/13 04:47:56;;;;;;;1.30;1.20;;;26.60;71.60;;;;;;5114495;28;20435;-83
2022/09/13 04:50:24;;;;;;;1.60;1.50;;;26.70;71.60;;;;;;5104893;28;20518;-82
2022/09/13 04:52:54;;;;;;;1.30;1.20;;;26.60;71.60;;;;;;5096496;28;20428;-90
2022/09/13 04:55:21;;;;;;;1.40;1.30;;;26.60;71.60;;;;;;5099002;28;20440;-83
2022/09/13 04:57:47;;;;;;;1.27;1.17;;;26.70;71.70;;;;;;5107712;27;20435;-81
2022/09/13 05:00:16;;;;;;;1.10;1.00;;;26.70;71.70;;;;;;5099724;28;20433;-82
2022/09/13 05:02:43;;;;;;;1.33;1.23;;;26.60;71.70;;;;;;5096438;28;20502;-82
2022/09/13 05:05:10;;;;;;;1.33;1.23;;;26.60;71.70;;;;;;5093898;28;20448;-90
2022/09/13 05:07:36;;;;;;;1.43;1.33;;;26.60;71.70;;;;;;5096058;28;20444;-82
2022/09/13 05:10:04;;;;;;;1.47;1.37;;;26.60;71.70;;;;;;5102092;28;20435;-81
2022/09/13 05:12:31;;;;;;;1.30;1.20;;;26.60;71.80;;;;;;5107864;28;20451;-82
2022/09/13 05:14:57;;;;;;;1.50;1.40;;;26.60;71.80;;;;;;5113884;28;20435;-82
2022/09/13 05:17:26;;;;;;;1.40;1.30;;;26.60;71.80;;;;;;5113952;28;20854;-81
2022/09/13 05:19:53;;;;;;;1.30;1.20;;;26.60;71.80;;;;;;5113696;28;20870;-81
2022/09/13 05:22:19;;;;;;;1.50;1.40;;;26.60;71.80;;;;;;5112835;28;20494;-83
2022/09/13 05:24:46;;;;;;;1.00;0.90;;;26.60;71.80;;;;;;5112717;28;20483;-82
2022/09/13 05:27:13;;;;;;;1.13;1.03;;;26.60;71.80;;;;;;5113012;28;20443;-82
2022/09/13 05:29:40;;;;;;;1.20;1.10;;;26.60;71.90;;;;;;5112778;28;20449;-82
2022/09/13 05:32:06;;;;;;;1.20;1.10;;;26.60;71.80;;;;;;5113491;28;20443;-90
2022/09/13 05:34:35;;;;;;;2.13;1.27;;;26.60;71.80;;;;;;5113786;28;20840;-82
2022/09/13 05:37:02;;;;;;;1.10;1.00;;;26.60;71.80;;;;;;5113841;28;20434;-82
2022/09/13 05:39:29;;;;;;;1.10;1.00;;;26.60;71.90;;;;;;5113810;28;20445;-83
2022/09/13 05:41:56;;;;;;;1.20;1.10;;;26.60;71.90;;;;;;5113938;28;20488;-82
2022/09/13 05:44:23;;;;;;;1.20;1.10;;;26.60;71.90;;;;;;5096620;28;20777;-91
2022/09/13 05:46:50;;;;;;;1.20;1.10;;;26.60;71.90;;;;;;5108574;28;20937;-82
2022/09/13 05:49:17;;;;;;;1.20;1.10;;;26.60;71.90;;;;;;5093082;28;20531;-82
2022/09/13 05:51:45;;;;;;;1.37;1.27;;;26.60;71.90;;;;;;5106584;28;20520;-82
2022/09/13 05:54:12;;;;;;;1.33;1.23;;;26.60;71.90;;;;;;5118701;28;20439;-82
2022/09/13 05:56:39;;;;;;;1.30;1.20;;;26.60;71.90;;;;;;5113444;28;20435;-81
2022/09/13 05:59:07;;;;;;;1.20;1.10;;;26.60;71.90;;;;;;5112403;28;20443;-84
2022/09/13 06:01:34;;;;;;;1.20;1.10;;;26.60;71.90;;;;;;5092933;28;20998;-82
2022/09/13 06:04:01;;;;;;;1.30;1.20;;;26.60;72.00;;;;;;5093169;28;20542;-83
2022/09/13 06:06:28;;;;;;;1.80;1.30;;;26.60;72.00;;;;;;5093298;28;20436;-81
2022/09/13 06:08:57;;;;;;;1.47;1.37;;;26.60;73.10;;;;;;5105913;28;20452;-83
2022/09/13 06:11:25;;;;;;;1.23;1.13;;;26.60;72.20;;;;;;5113222;28;20469;-83
2022/09/13 06:13:53;;;;;;;1.30;1.20;;;26.60;72.20;;;;;;5113580;28;20847;-88
2022/09/13 06:16:22;;;;;;;1.40;1.30;;;26.60;72.20;;;;;;5113374;28;20443;-89
2022/09/13 06:18:49;;;;;;;1.83;1.33;;;26.60;72.20;;;;;;5113613;28;20466;-83
2022/09/13 06:21:18;;;;;;;1.30;1.13;;;26.60;72.30;;;;;;5113441;28;20439;-85
2022/09/13 06:23:45;;;;;;;1.50;1.40;;;26.60;72.30;;;;;;5114699;28;20477;-82
2022/09/13 06:26:16;;;;;;;1.97;1.43;;;26.60;72.30;;;;;;5117345;28;20526;-88
2022/09/13 06:28:47;;;;;;;1.40;1.30;;;26.60;72.40;;;;;;5117503;28;20443;-82
2022/09/13 06:31:15;;;;;;;1.40;1.30;;;26.60;72.40;;;;;;5117390;28;20442;-82
2022/09/13 06:33:43;;;;;;;1.40;1.30;;;26.60;72.40;;;;;;5117151;28;20441;-84
2022/09/13 06:36:12;;;;;;;1.40;1.30;;;26.60;72.40;;;;;;5116985;28;20544;-82
2022/09/13 06:38:39;;;;;;;1.30;1.20;;;26.60;72.40;;;;;;5117369;28;20871;-83
2022/09/13 06:41:09;;;;;;;1.20;1.10;;;26.60;72.40;;;;;;5116898;28;20446;-82
2022/09/13 06:43:38;;;;;;;1.47;1.37;;;26.60;72.40;;;;;;5116829;28;20532;-83
2022/09/13 06:46:08;;;;;;;1.40;1.30;;;26.60;72.40;;;;;;5116940;28;20433;-93
2022/09/13 06:48:36;;;;;;;1.87;1.23;;;26.60;72.50;;;;;;5116928;28;20436;-83
2022/09/13 06:51:05;;;;;;;1.17;1.07;;;26.60;72.50;;;;;;5115805;28;20434;-80
2022/09/13 06:53:33;;;;;;;2.43;1.20;;;26.60;72.50;;;;;;5116404;28;20453;-81
2022/09/13 06:56:02;;;;;;;1.30;1.20;;;26.60;72.60;;;;;;5116607;28;20438;-81
2022/09/13 06:58:30;;;;;;;1.57;1.47;;;26.50;72.60;;;;;;5116567;28;20439;-81
2022/09/13 07:01:09;;;;;;;1.50;1.40;;;26.60;72.70;;;;;;5116545;28;20443;-82
2022/09/13 07:03:36;;;;;;;1.60;1.50;;;26.60;72.70;;;;;;5115949;28;20493;-80
2022/09/13 07:06:11;;;;;;;1.30;1.20;;;26.60;72.80;;;;;;5116250;28;20447;-81
2022/09/13 07:08:39;;;;;;;2.17;1.20;;;26.60;72.80;;;;;;5116517;28;20858;-80
2022/09/13 07:11:08;;;;;;;3.20;1.50;;;26.50;72.80;;;;;;5114661;28;20973;-80
2022/09/13 07:13:35;;;;;;;2.00;1.30;;;26.60;72.90;;;;;;5114301;28;20957;-80
2022/09/13 07:16:03;;;;;;;2.17;1.27;;;26.50;72.80;;;;;;5114510;28;20431;-80
2022/09/13 07:18:31;;;;;;;1.70;1.60;;;26.60;73.00;;;;;;5115481;28;20530;-83
2022/09/13 07:21:01;;;;;;;1.93;1.73;;;26.60;73.00;;;;;;5115800;28;21121;-83
2022/09/13 07:23:28;;;;;;;1.40;1.30;;;26.50;72.80;;;;;;5115765;28;21072;-90
2022/09/13 07:26:00;;;;;;;1.40;1.23;;;26.60;72.80;;;;;;5116237;28;20443;-83
2022/09/13 07:28:28;;;;;;;1.37;1.27;;;26.60;72.70;;;;;;5116041;28;20434;-83
2022/09/13 07:30:57;;;;;;;1.50;1.40;;;26.70;72.70;;;;;;5116077;28;20496;-83
2022/09/13 07:33:24;;;;;;;1.20;1.10;;;26.70;72.60;;;;;;5116007;28;20847;-83
2022/09/13 07:35:56;;;;;;;1.30;1.20;;;26.70;72.60;;;;;;5114893;28;20443;-84
2022/09/13 07:38:23;;;;;;;1.40;1.30;;;26.70;72.60;;;;;;5115123;28;20530;-83
2022/09/13 07:40:54;;;;;;;2.83;1.53;;;26.70;72.70;;;;;;5114719;28;20777;-83
2022/09/13 07:43:21;;;;;;;1.40;1.30;;;26.70;72.60;;;;;;5114540;28;20497;-85
2022/09/13 07:45:48;;;;;;;1.67;1.20;;;26.70;72.60;;;;;;5114732;28;20454;-85
2022/09/13 07:48:15;;;;;;;1.60;1.50;;;26.70;72.60;;;;;;5114685;28;20465;-83
2022/09/13 07:50:42;;;;;;;1.50;1.40;;;26.70;72.60;;;;;;5115114;28;20450;-82
2022/09/13 07:53:10;;;;;;;1.53;1.37;;;26.70;72.60;;;;;;5115247;28;20474;-83
2022/09/13 07:55:37;;;;;;;1.50;1.40;;;26.70;72.60;;;;;;5115669;28;20439;-83
2022/09/13 07:58:04;;;;;;;2.03;1.40;;;26.70;72.60;;;;;;5115481;28;20450;-83
2022/09/13 08:00:30;;;;;;;1.40;1.17;;;26.80;72.70;;;;;;5115229;28;20443;-83
2022/09/13 08:02:57;;;;;;;1.60;1.40;;;26.80;72.70;;;;;;5115379;28;20562;-87
2022/09/13 08:05:24;;;;;;;1.40;1.30;;;26.80;72.70;;;;;;5111833;27;20873;-80
2022/09/13 08:07:51;;;;;;;2.60;1.40;;;26.70;72.60;;;;;;5107231;28;20501;-80
2022/09/13 08:10:19;;;;;;;3.83;1.67;;;26.70;72.60;;;;;;5115270;28;20542;-80
2022/09/13 08:12:46;;;;;;;2.13;1.40;;;26.70;72.60;;;;;;5115095;28;20522;-84
2022/09/13 08:15:13;;;;;;;2.37;1.70;;;26.70;72.60;;;;;;5115417;28;21030;-85
2022/09/13 08:17:40;;;;;;;1.83;1.73;;;26.70;72.60;;;;;;5114206;28;20972;-84
2022/09/13 08:20:07;;;;;;;2.20;1.50;;;26.70;72.70;;;;;;5115047;28;20506;-84
2022/09/13 08:22:34;;;;;;;1.97;1.57;;;26.70;72.70;;;;;;5114881;28;20482;-82
2022/09/13 08:25:01;;;;;;;1.70;1.60;;;26.70;72.60;;;;;;5114793;28;20441;-82
2022/09/13 08:27:29;;;;;;;1.93;1.83;;;26.80;72.70;;;;;;5114978;28;20514;-83
2022/09/13 08:29:56;;;;;;;1.57;1.47;;;26.80;72.70;;;;;;5114926;28;20530;-82
2022/09/13 08:32:23;;;;;;;1.60;1.50;;;26.80;72.70;;;;;;5114855;28;20529;-88
2022/09/13 08:34:50;;;;;;;3.30;1.70;;;26.80;72.70;;;;;;5115277;28;20435;-83
2022/09/13 08:37:17;;;;;;;1.70;1.50;;;26.80;72.70;;;;;;5114786;28;21024;-82
2022/09/13 08:39:43;;;;;;;2.13;1.50;;;26.80;72.70;;;;;;5114628;28;20454;-83
2022/09/13 08:42:20;;;;;;;3.30;1.80;;;26.80;72.90;;;;;;5114312;28;20919;-87
2022/09/13 08:44:52;;;;;;;3.23;1.50;;;26.80;72.80;;;;;;5115126;28;20879;-90
2022/09/13 08:47:28;;;;;;;1.53;1.17;;;26.80;72.80;;;;;;5114153;28;20871;-81
2022/09/13 08:50:03;;;;;;;1.70;1.60;;;26.90;72.80;;;;;;5114530;28;20533;-82
2022/09/13 08:52:35;;;;;;;1.73;1.63;;;26.90;72.80;;;;;;5114529;28;20941;-82
2022/09/13 08:55:11;;;;;;;1.90;1.70;;;26.80;72.70;;;;;;5114337;28;20434;-83
2022/09/13 08:57:46;;;;;;;1.63;1.47;;;26.90;72.70;;;;;;5113619;28;20537;-87
2022/09/13 09:00:21;;;;;;;1.67;1.57;;;26.90;72.80;;;;;;5113358;28;20431;-91
2022/09/13 09:03:07;;;;;;;1.70;1.60;;;26.90;72.70;;;;;;5114762;28;20485;-90
2022/09/13 09:05:46;;;;;;;1.53;1.43;;;26.90;72.70;;;;;;5115354;28;20439;-81
2022/09/13 09:08:18;;;;;;;1.97;1.50;;;26.90;72.80;;;;;;5114720;28;20439;-88
2022/09/13 09:10:48;;;;;;;1.57;1.47;;;26.90;72.90;;;;;;5114875;28;20526;-82
2022/09/13 09:13:26;;;;;;;1.97;1.30;;;26.90;72.90;;;;;;5114122;28;20435;-82
2022/09/13 09:15:57;;;;;;;1.97;1.87;;;26.90;72.80;;;;;;5114172;28;20446;-82
2022/09/13 09:18:29;;;;;;;1.50;1.40;;;27.00;72.90;;;;;;5113784;28;21024;-86
2022/09/13 09:20:58;;;;;;;2.17;2.07;;;27.00;72.80;;;;;;5114257;28;20458;-82
2022/09/13 09:23:31;;;;;;;2.53;1.97;;;27.00;72.80;;;;;;5113852;28;20985;-82
2022/09/13 09:26:11;;;;;;;1.70;1.60;;;27.00;72.80;;;;;;5114265;28;20435;-82
2022/09/13 09:28:37;;;;;;;1.90;1.80;;;27.00;72.80;;;;;;5112760;28;20443;-82
2022/09/13 09:31:13;;;;;;;1.50;1.40;;;27.00;72.90;;;;;;5113712;28;20436;-82
2022/09/13 09:33:53;;;;;;;2.57;2.37;;;27.00;72.90;;;;;;5113708;28;20487;-82
2022/09/13 09:36:36;;;;;;;1.63;1.53;;;27.10;73.00;;;;;;5113885;28;20430;-83
2022/09/13 09:39:04;;;;;;;1.70;1.57;;;27.00;72.90;;;;;;5113861;28;20530;-82
2022/09/13 09:41:34;;;;;;;1.70;1.60;;;27.00;73.80;;;;;;5113898;28;20467;-83
2022/09/13 09:44:07;;;;;;;2.03;1.93;;;27.10;73.00;;;;;;5113778;28;20463;-82
2022/09/13 09:46:40;;;;;;;2.13;2.03;;;27.10;73.00;;;;;;5113803;28;20984;-82
2022/09/13 09:51:57;;;;;;;1.60;1.50;;;27.10;73.00;;;;;;5112592;28;20461;-82
2022/09/13 09:54:27;;;;;;;1.43;1.33;;;27.10;73.00;;;;;;5114297;28;20525;-83
2022/09/13 09:56:55;;;;;;;2.90;1.90;;;27.10;73.00;;;;;;5113487;28;20504;-83
2022/09/13 09:59:27;;;;;;;2.03;1.93;;;27.10;73.00;;;;;;5116225;28;20441;-82
2022/09/13 10:01:56;;;;;;;1.70;1.60;;;27.10;73.00;;;;;;5117811;28;20435;-83
2022/09/13 10:04:24;;;;;;;1.80;1.47;;;27.10;72.90;;;;;;5117668;28;20505;-83
2022/09/13 10:07:09;;;;;;;1.73;1.63;;;27.10;73.00;;;;;;5117818;28;20779;-82
2022/09/13 10:09:38;;;;;;;4.57;1.60;;;27.10;73.00;;;;;;5117622;28;20441;-83
2022/09/13 10:12:06;;;;;;;1.97;1.83;;;27.10;73.00;;;;;;5117603;28;20474;-86
2022/09/13 10:14:38;;;;;;;3.97;1.47;;;27.20;73.10;;;;;;5117588;28;20533;-86
2022/09/13 12:55:38;;;;;;;9.77;4.27;;;27.30;75.90;;;;;;5091997;28;20551;-81
2022/09/13 12:58:29;;;;;;;7.83;4.10;;;27.20;75.80;;;;;;5103329;28;20444;-81
2022/09/13 13:01:08;;;;;;;7.90;3.60;;;27.30;75.70;;;;;;5113739;28;20918;-87
2022/09/13 13:03:43;;;;;;;4.43;3.83;;;27.40;75.70;;;;;;5114320;28;20500;-81
2022/09/13 13:06:18;;;;;;;6.70;3.63;;;27.40;75.50;;;;;;5113945;28;20481;-81
2022/09/13 13:08:51;;;;;;;5.40;3.50;;;27.30;75.60;;;;;;5093473;28;21011;-81
2022/09/13 13:11:23;;;;;;;5.93;3.30;;;27.40;75.70;;;;;;5093413;28;20432;-81
2022/09/13 13:13:56;;;;;;;6.97;3.30;;;27.40;75.80;;;;;;5093162;28;20814;-81
2022/09/13 13:16:28;;;;;;;6.53;3.77;;;27.40;75.80;;;;;;5092819;28;20467;-90
2022/09/13 13:18:56;;;;;;;3.70;3.40;;;27.40;75.70;;;;;;5093038;28;20447;-82
2022/09/13 13:21:30;;;;;;;5.83;3.13;;;27.40;75.70;;;;;;5093294;28;20444;-85
2022/09/13 13:24:34;;;;;;;8.80;3.60;;;27.40;75.60;;;;;;5092446;28;20493;-81
2022/09/13 13:27:35;;;;;;;3.27;2.97;;;27.50;75.60;;;;;;5093844;28;20506;-87
2022/09/13 13:30:55;;;;;;;3.80;3.00;;;27.40;75.70;;;;;;5089432;28;20438;-81
2022/09/13 13:33:25;;;;;;;5.83;3.03;;;27.40;75.80;;;;;;5092540;28;20450;-81
2022/09/13 13:35:53;;;;;;;3.17;2.87;;;27.40;75.90;;;;;;5093367;28;20439;-88
2022/09/13 13:38:41;;;;;;;4.73;3.03;;;27.40;75.90;;;;;;5093186;28;20444;-81
2022/09/13 13:41:38;;;;;;;4.50;3.17;;;27.40;75.80;;;;;;5092562;28;20440;-81
2022/09/13 13:44:38;;;;;;;4.13;3.43;;;27.40;75.80;;;;;;5091948;28;20487;-81
2022/09/13 13:47:38;;;;;;;3.23;2.87;;;27.40;75.90;;;;;;5092245;28;20464;-80
2022/09/13 13:50:15;;;;;;;4.47;3.20;;;27.40;75.90;;;;;;5091565;28;20448;-81
2022/09/13 13:52:54;;;;;;;3.20;2.90;;;27.40;76.00;;;;;;5092353;28;20554;-81
2022/09/13 13:55:39;;;;;;;3.30;2.40;;;27.40;76.00;;;;;;5091809;28;20478;-81
2022/09/13 13:58:22;;;;;;;4.63;2.87;;;27.40;75.90;;;;;;5091493;28;20446;-80
2022/09/13 14:00:51;;;;;;;2.53;2.33;;;27.40;76.00;;;;;;5091912;28;20518;-80
2022/09/13 14:03:29;;;;;;;3.53;2.30;;;27.40;76.00;;;;;;5091298;28;20488;-80
2022/09/13 14:06:07;;;;;;;3.30;2.60;;;27.40;76.00;;;;;;5091708;28;20448;-81
2022/09/13 14:08:43;;;;;;;2.83;2.63;;;27.40;76.00;;;;;;5091921;28;20435;-80
2022/09/13 14:11:24;;;;;;;2.87;2.57;;;27.40;76.10;;;;;;5093215;28;20530;-91
2022/09/13 14:14:03;;;;;;;2.63;2.43;;;27.40;76.10;;;;;;5096712;28;20792;-90
2022/09/13 14:16:41;;;;;;;3.03;2.83;;;27.40;76.10;;;;;;5093479;28;20460;-90
2022/09/13 14:19:24;;;;;;;2.47;2.30;;;27.40;76.10;;;;;;5092846;28;20444;-90
2022/09/13 14:22:16;;;;;;;2.97;2.77;;;27.40;76.10;;;;;;5093105;28;20814;-80
2022/09/13 14:24:45;;;;;;;3.80;2.60;;;27.40;76.10;;;;;;5093284;28;20522;-88
2022/09/13 14:27:21;;;;;;;3.23;2.23;;;27.40;76.30;;;;;;5093060;28;20441;-80
2022/09/13 14:29:50;;;;;;;3.67;2.80;;;27.40;76.30;;;;;;5092609;28;20931;-90
2022/09/13 14:32:20;;;;;;;2.27;2.00;;;27.40;76.20;;;;;;5092883;28;20538;-80
2022/09/13 14:35:01;;;;;;;2.10;1.97;;;27.40;76.10;;;;;;5092959;28;20432;-80
2022/09/13 14:37:31;;;;;;;2.43;2.23;;;27.40;76.20;;;;;;5092986;28;20985;-80
2022/09/13 14:40:01;;;;;;;3.27;2.33;;;27.40;76.20;;;;;;5093206;28;20867;-90
2022/09/13 14:42:39;;;;;;;2.50;2.30;;;27.40;76.20;;;;;;5093401;28;20436;-80
2022/09/13 14:45:11;;;;;;;3.50;2.80;;;27.30;76.00;;;;;;5095132;28;20989;-81
2022/09/13 14:47:45;;;;;;;1.93;1.83;;;27.30;76.10;;;;;;5096424;28;20456;-88
2022/09/13 14:50:15;;;;;;;2.60;2.40;;;27.30;76.10;;;;;;5096564;28;20520;-80
2022/09/13 14:52:50;;;;;;;2.80;2.00;;;27.30;76.10;;;;;;5096513;28;20931;-80
2022/09/13 14:55:21;;;;;;;2.20;2.00;;;27.40;76.10;;;;;;5096327;28;20470;-80
2022/09/13 14:57:52;;;;;;;1.93;1.83;;;27.30;76.20;;;;;;5096309;28;20938;-80
2022/09/13 15:00:21;;;;;;;2.27;2.03;;;27.30;76.10;;;;;;5096261;28;20446;-81
2022/09/13 15:02:51;;;;;;;2.63;2.00;;;27.30;76.10;;;;;;5096374;28;20462;-80
2022/09/13 15:05:20;;;;;;;3.03;2.40;;;27.40;76.10;;;;;;5095603;28;20482;-90
2022/09/13 15:07:49;;;;;;;2.00;1.90;;;27.30;76.10;;;;;;5095506;28;20770;-81
2022/09/13 15:10:27;;;;;;;1.90;1.80;;;27.30;76.10;;;;;;5096244;28;20442;-84
2022/09/13 15:13:02;;;;;;;1.90;1.80;;;27.30;76.10;;;;;;5096982;28;20446;-85
2022/09/13 15:15:34;;;;;;;2.80;2.30;;;27.40;76.10;;;;;;5097152;28;20450;-85
2022/09/13 15:18:03;;;;;;;2.40;2.20;;;27.40;75.70;;;;;;5097602;28;20534;-85
2022/09/13 15:20:44;;;;;;;6.30;2.13;;;27.40;75.60;;;;;;5097578;28;20840;-84
2022/09/13 15:23:15;;;;;;;2.17;1.97;;;27.40;75.60;;;;;;5096951;28;20442;-84
2022/09/13 15:25:49;;;;;;;2.80;2.13;;;27.40;75.60;;;;;;5096319;28;20519;-85
2022/09/13 15:28:25;;;;;;;2.17;1.80;;;27.40;75.60;;;;;;5093853;28;20534;-84
2022/09/13 15:30:53;;;;;;;2.30;2.10;;;27.50;76.50;;;;;;5094547;28;20797;-84
2022/09/13 15:33:25;;;;;;;2.40;2.20;;;27.50;75.60;;;;;;5093841;28;20439;-85
2022/09/13 15:35:53;;;;;;;1.90;1.80;;;27.50;75.60;;;;;;5094697;28;20834;-85
2022/09/13 15:38:32;;;;;;;1.97;1.83;;;27.50;75.60;;;;;;5093653;28;20443;-90
2022/09/13 15:41:02;;;;;;;2.20;2.00;;;27.50;75.50;;;;;;5095617;28;20448;-82
2022/09/13 15:43:30;;;;;;;2.10;1.87;;;27.50;76.60;;;;;;5095909;28;20486;-96
2022/09/13 15:45:57;;;;;;;2.77;1.60;;;27.50;75.90;;;;;;5096346;28;20441;-85
2022/09/13 15:48:28;;;;;;;2.77;2.00;;;27.50;75.70;;;;;;5099096;28;20448;-96
2022/09/13 15:51:07;;;;;;;1.80;1.70;;;27.50;75.60;;;;;;5096126;28;20450;-85
2022/09/13 15:53:35;;;;;;;3.60;1.97;;;27.60;75.70;;;;;;5097065;28;20950;-85